createdAt,value
2023-05-01T00:00:42.546Z,71.4827
2023-05-01T00:01:42.654Z,70.9615
2023-05-01T00:02:42.921Z,71.6277
2023-05-01T00:03:43.180Z,71.3650
2023-05-01T00:04:43.441Z,71.5863
2023-05-01T00:05:43.542Z,71.0704
2023-05-01T00:06:43.684Z,70.3908
2023-05-01T00:07:43.816Z,69.3348
2023-05-01T00:08:43.932Z,69.9913
2023-05-01T00:09:44.088Z,70.6945
2023-05-01T00:10:44.189Z,71.0827
2023-05-01T00:11:44.327Z,71.6927
2023-05-01T00:12:44.469Z,72.8779
2023-05-01T00:13:44.573Z,73.6544
2023-05-01T00:14:44.684Z,73.7134
2023-05-01T00:15:44.812Z,73.7166
2023-05-01T00:16:44.979Z,73.3674
2023-05-01T00:17:45.193Z,72.8725
2023-05-01T00:18:45.309Z,72.9863
2023-05-01T00:19:45.401Z,73.7115
2023-05-01T00:20:45.501Z,74.8368
2023-05-01T00:21:45.694Z,74.2760
2023-05-01T00:22:45.799Z,72.9671
2023-05-01T00:23:45.939Z,73.2740
2023-05-01T00:24:46.045Z,73.4514
2023-05-01T00:25:46.188Z,74.6057
2023-05-01T00:26:46.366Z,74.1267
2023-05-01T00:27:46.471Z,72.7281
2023-05-01T00:28:46.582Z,72.3668
2023-05-01T00:29:46.696Z,73.2135
2023-05-01T00:30:46.863Z,76.0014
2023-05-01T00:31:47.076Z,76.1046
2023-05-01T00:32:47.325Z,75.0358
2023-05-01T00:33:47.393Z,74.1372
2023-05-01T00:34:47.482Z,74.1128
2023-05-01T00:35:47.601Z,75.9019
2023-05-01T00:36:49.707Z,76.6885
2023-05-01T00:37:50.100Z,77.0080
2023-05-01T00:38:50.227Z,76.8341
2023-05-01T00:39:50.330Z,77.5491
2023-05-01T00:40:50.476Z,76.6469
2023-05-01T00:41:50.622Z,75.5735
2023-05-01T00:42:50.747Z,77.3082
2023-05-01T00:43:50.906Z,76.7031
2023-05-01T00:44:51.005Z,76.1681
2023-05-01T00:45:51.164Z,75.7194
2023-05-01T00:46:51.259Z,74.2547
2023-05-01T00:47:51.445Z,74.6096
2023-05-01T00:48:51.547Z,74.4650
2023-05-01T00:49:51.659Z,74.5050
2023-05-01T00:50:51.767Z,74.8188
2023-05-01T00:51:51.944Z,74.9759
2023-05-01T00:52:52.032Z,74.4550
2023-05-01T00:53:52.144Z,75.6919
2023-05-01T00:54:52.287Z,76.0901
2023-05-01T00:55:52.421Z,77.9561
2023-05-01T00:56:52.566Z,77.7599
2023-05-01T00:57:52.714Z,77.1885
2023-05-01T00:58:52.829Z,77.2853
2023-05-01T00:59:53.000Z,77.2059
2023-05-01T01:00:53.200Z,77.6371
2023-05-01T01:01:55.678Z,77.9311
2023-05-01T01:02:53.467Z,79.3398
2023-05-01T01:03:53.642Z,79.1698
2023-05-01T01:04:53.727Z,80.4461
2023-05-01T01:05:53.851Z,80.0969
2023-05-01T01:06:53.953Z,80.7945
2023-05-01T01:07:54.079Z,80.2858
2023-05-01T01:08:54.216Z,79.1452
2023-05-01T01:09:54.414Z,77.7313
2023-05-01T01:10:54.530Z,77.0058
2023-05-01T01:11:54.636Z,77.7570
2023-05-01T01:12:54.773Z,77.9026
2023-05-01T01:13:54.918Z,77.2464
2023-05-01T01:14:55.015Z,76.9347
2023-05-01T01:15:55.133Z,76.4816
2023-05-01T01:16:55.286Z,76.5118
2023-05-01T01:17:55.405Z,76.1402
2023-05-01T01:18:55.552Z,76.5380
2023-05-01T01:19:55.955Z,76.7457
2023-05-01T01:20:56.203Z,77.6641
2023-05-01T01:21:56.334Z,78.8381
2023-05-01T01:22:56.447Z,80.1856
2023-05-01T01:23:56.578Z,80.2564
2023-05-01T01:24:56.766Z,80.2894
2023-05-01T01:25:56.863Z,79.8298
2023-05-01T01:26:56.988Z,80.1391
2023-05-01T01:27:57.117Z,80.1717
2023-05-01T01:28:57.217Z,79.9615
2023-05-01T01:29:57.638Z,79.9224
2023-05-01T01:30:58.067Z,79.9346
2023-05-01T01:31:58.174Z,80.8480
2023-05-01T01:32:58.346Z,81.6251
2023-05-01T01:33:58.460Z,81.5556
2023-05-01T01:34:58.571Z,81.0675
2023-05-01T01:35:58.722Z,80.8024
2023-05-01T01:36:58.887Z,80.5796
2023-05-01T01:37:59.020Z,80.7361
2023-05-01T01:38:59.143Z,80.6486
2023-05-01T01:39:59.281Z,81.3425
2023-05-01T01:40:59.425Z,81.2783
2023-05-01T01:41:59.616Z,80.3012
2023-05-01T01:42:59.809Z,79.5496
2023-05-01T01:43:59.905Z,79.4803
2023-05-01T01:45:00.050Z,79.7712
2023-05-01T01:46:00.220Z,79.5539
2023-05-01T01:47:00.306Z,78.8326
2023-05-01T01:48:00.539Z,78.9404
2023-05-01T01:49:00.647Z,78.3930
2023-05-01T01:50:00.774Z,79.0140
2023-05-01T01:51:00.904Z,79.2324
2023-05-01T01:52:01.036Z,79.6591
2023-05-01T01:53:01.145Z,79.7713
2023-05-01T01:54:01.266Z,80.0316
2023-05-01T01:55:01.382Z,80.3860
2023-05-01T01:56:03.574Z,80.2327
2023-05-01T01:57:03.947Z,80.1546
2023-05-01T01:58:04.083Z,80.1562
2023-05-01T01:59:04.223Z,79.9014
2023-05-01T02:00:04.321Z,79.1493
2023-05-01T02:01:04.510Z,79.0196
2023-05-01T02:02:04.753Z,78.6972
2023-05-01T02:03:05.005Z,78.5467
2023-05-01T02:04:05.105Z,77.9545
2023-05-01T02:05:05.225Z,77.8696
2023-05-01T02:06:05.367Z,77.7723
2023-05-01T02:07:05.520Z,77.1618
2023-05-01T02:08:05.650Z,76.0709
2023-05-01T02:09:05.786Z,75.8321
2023-05-01T02:10:06.051Z,75.7898
2023-05-01T02:11:06.131Z,75.6826
2023-05-01T02:12:06.237Z,75.9510
2023-05-01T02:13:06.375Z,75.8861
2023-05-01T02:14:06.509Z,75.2410
2023-05-01T02:15:06.626Z,75.2625
2023-05-01T02:16:06.828Z,74.6932
2023-05-01T02:17:06.900Z,74.5615
2023-05-01T02:18:07.055Z,74.6948
2023-05-01T02:19:07.183Z,74.4054
2023-05-01T02:20:07.304Z,74.5531
2023-05-01T02:21:07.443Z,74.6071
2023-05-01T02:22:07.555Z,74.2150
2023-05-01T02:23:07.714Z,73.7784
2023-05-01T02:24:07.832Z,74.0306
2023-05-01T02:25:07.973Z,74.1211
2023-05-01T02:26:08.081Z,74.4000
2023-05-01T02:27:08.224Z,74.0981
2023-05-01T02:28:08.330Z,74.0664
2023-05-01T02:29:08.478Z,74.2854
2023-05-01T02:30:08.582Z,74.7254
2023-05-01T02:31:08.715Z,76.0655
2023-05-01T02:32:08.875Z,76.1907
2023-05-01T02:33:09.062Z,75.8423
2023-05-01T02:34:09.172Z,75.2965
2023-05-01T02:35:09.306Z,75.3926
2023-05-01T02:36:09.409Z,75.9061
2023-05-01T02:37:09.545Z,75.3784
2023-05-01T02:38:09.673Z,75.5692
2023-05-01T02:39:09.812Z,76.3423
2023-05-01T02:40:09.922Z,76.9531
2023-05-01T02:41:10.033Z,77.1197
2023-05-01T02:42:10.164Z,76.6648
2023-05-01T02:43:10.355Z,76.2185
2023-05-01T02:44:10.452Z,75.7336
2023-05-01T02:45:10.610Z,75.2873
2023-05-01T02:46:10.765Z,75.6177
2023-05-01T02:47:10.895Z,76.3689
2023-05-01T02:48:11.097Z,76.1543
2023-05-01T02:49:11.213Z,76.5570
2023-05-01T02:50:11.340Z,76.1644
2023-05-01T02:51:11.455Z,75.9148
2023-05-01T02:52:11.566Z,75.8830
2023-05-01T02:53:11.767Z,74.9785
2023-05-01T02:54:11.879Z,75.2162
2023-05-01T02:55:12.056Z,75.9318
2023-05-01T02:56:12.186Z,77.7624
2023-05-01T02:57:12.374Z,78.2281
2023-05-01T02:58:12.475Z,78.6702
2023-05-01T02:59:12.627Z,79.9858
2023-05-01T03:00:12.792Z,80.2677
2023-05-01T03:01:12.975Z,80.3939
2023-05-01T03:02:13.086Z,80.2935
2023-05-01T03:03:13.271Z,81.0257
2023-05-01T03:04:13.450Z,81.8434
2023-05-01T03:05:13.569Z,82.6544
2023-05-01T03:06:13.794Z,83.3134
2023-05-01T03:07:13.887Z,84.1135
2023-05-01T03:08:13.992Z,84.0444
2023-05-01T03:09:14.126Z,84.0989
2023-05-01T03:10:14.254Z,84.1098
2023-05-01T03:11:14.410Z,83.8708
2023-05-01T03:12:14.517Z,83.7717
2023-05-01T03:13:14.660Z,83.4065
2023-05-01T03:14:14.767Z,82.9818
2023-05-01T03:15:14.962Z,83.2355
2023-05-01T03:16:15.158Z,83.4916
2023-05-01T03:17:15.268Z,83.7169
2023-05-01T03:18:15.397Z,84.1443
2023-05-01T03:19:15.558Z,84.7156
2023-05-01T03:20:15.686Z,84.6707
2023-05-01T03:21:15.824Z,84.4578
2023-05-01T03:22:15.928Z,84.4023
2023-05-01T03:23:19.197Z,84.5978
2023-05-01T03:24:16.107Z,84.3886
2023-05-01T03:25:16.231Z,83.7168
2023-05-01T03:26:16.364Z,83.7230
2023-05-01T03:27:16.491Z,83.5675
2023-05-01T03:28:16.628Z,83.2583
2023-05-01T03:29:16.768Z,82.8603
2023-05-01T03:30:16.914Z,82.7677
2023-05-01T03:31:17.049Z,82.9373
2023-05-01T03:32:17.258Z,82.9476
2023-05-01T03:33:17.406Z,82.5612
2023-05-01T03:34:17.527Z,83.2217
2023-05-01T03:35:17.750Z,83.5453
2023-05-01T03:36:17.866Z,83.0555
2023-05-01T03:37:18.028Z,83.1419
2023-05-01T03:38:18.150Z,83.3178
2023-05-01T03:39:18.306Z,83.6279
2023-05-01T03:40:18.437Z,83.7680
2023-05-01T03:41:18.576Z,83.5739
2023-05-01T03:42:18.770Z,83.2031
2023-05-01T03:43:18.892Z,83.4787
2023-05-01T03:44:19.054Z,84.3655
2023-05-01T03:45:19.173Z,84.3495
2023-05-01T03:46:19.329Z,84.1652
2023-05-01T03:47:19.439Z,84.6497
2023-05-01T03:48:19.595Z,84.7672
2023-05-01T03:49:19.715Z,84.3896
2023-05-01T03:50:19.835Z,83.8242
2023-05-01T03:51:19.999Z,83.6125
2023-05-01T03:52:20.171Z,83.9838
2023-05-01T03:53:20.315Z,84.3451
2023-05-01T03:54:20.502Z,84.3009
2023-05-01T03:55:20.613Z,84.7925
2023-05-01T03:56:20.754Z,85.2101
2023-05-01T03:57:20.941Z,85.3634
2023-05-01T03:58:21.060Z,85.6452
2023-05-01T03:59:21.199Z,85.8693
2023-05-01T04:00:21.324Z,85.8286
2023-05-01T04:01:21.458Z,86.1241
2023-05-01T04:02:21.718Z,86.5042
2023-05-01T04:03:22.107Z,86.6827
2023-05-01T04:04:22.251Z,86.6995
2023-05-01T04:05:22.377Z,86.8800
2023-05-01T04:06:22.548Z,86.8442
2023-05-01T04:07:22.678Z,86.8110
2023-05-01T04:08:22.782Z,86.7525
2023-05-01T04:09:22.909Z,86.6844
2023-05-01T04:10:23.028Z,86.5880
2023-05-01T04:11:23.155Z,86.1441
2023-05-01T04:12:23.292Z,85.7276
2023-05-01T04:13:23.412Z,85.3912
2023-05-01T04:14:23.561Z,85.7072
2023-05-01T04:15:23.710Z,85.1672
2023-05-01T04:16:23.844Z,85.1768
2023-05-01T04:17:23.982Z,85.0580
2023-05-01T04:18:24.110Z,85.0514
2023-05-01T04:19:24.230Z,85.1473
2023-05-01T04:20:24.369Z,86.0400
2023-05-01T04:21:24.484Z,86.5254
2023-05-01T04:22:24.602Z,86.7502
2023-05-01T04:23:24.919Z,87.0048
2023-05-01T04:24:25.002Z,87.3405
2023-05-01T04:25:25.152Z,87.3949
2023-05-01T04:26:25.275Z,87.6523
2023-05-01T04:27:25.436Z,87.6747
2023-05-01T04:28:25.553Z,87.4235
2023-05-01T04:29:25.679Z,87.3203
2023-05-01T04:30:25.821Z,87.4120
2023-05-01T04:31:25.965Z,87.5244
2023-05-01T04:32:26.132Z,87.5885
2023-05-01T04:33:26.222Z,87.6935
2023-05-01T04:34:26.338Z,87.8854
2023-05-01T04:35:26.482Z,87.9258
2023-05-01T04:36:26.619Z,88.0838
2023-05-01T04:37:26.751Z,88.0676
2023-05-01T04:38:26.864Z,88.2733
2023-05-01T04:39:27.008Z,88.2768
2023-05-01T04:40:27.125Z,88.1834
2023-05-01T04:41:27.245Z,88.0088
2023-05-01T04:42:27.358Z,87.8416
2023-05-01T04:43:27.489Z,87.8683
2023-05-01T04:44:27.646Z,87.6853
2023-05-01T04:45:27.785Z,87.6040
2023-05-01T04:46:27.932Z,87.4942
2023-05-01T04:47:28.032Z,87.2070
2023-05-01T04:48:28.141Z,86.8201
2023-05-01T04:49:28.282Z,86.6630
2023-05-01T04:50:28.399Z,86.7437
2023-05-01T04:51:28.520Z,86.8623
2023-05-01T04:52:28.640Z,86.5335
2023-05-01T04:53:28.780Z,86.1689
2023-05-01T04:54:28.921Z,86.0270
2023-05-01T04:55:31.023Z,86.2559
2023-05-01T04:56:31.333Z,86.2359
2023-05-01T04:57:31.454Z,86.4057
2023-05-01T04:58:31.571Z,86.7309
2023-05-01T04:59:31.748Z,86.6244
2023-05-01T05:00:31.901Z,86.4928
2023-05-01T05:01:32.075Z,86.3057
2023-05-01T05:02:32.285Z,86.2006
2023-05-01T05:03:32.594Z,85.9398
2023-05-01T05:04:32.730Z,86.3319
2023-05-01T05:05:32.896Z,86.5840
2023-05-01T05:06:33.070Z,86.3557
2023-05-01T05:07:33.184Z,86.3789
2023-05-01T05:08:33.309Z,86.5690
2023-05-01T05:09:33.458Z,86.4855
2023-05-01T05:10:33.586Z,86.6011
2023-05-01T05:11:33.702Z,86.5923
2023-05-01T05:12:33.834Z,86.1425
2023-05-01T05:13:33.995Z,85.7539
2023-05-01T05:14:34.109Z,86.0200
2023-05-01T05:15:34.282Z,86.1734
2023-05-01T05:16:34.458Z,86.7256
2023-05-01T05:17:34.583Z,87.1999
2023-05-01T05:18:34.689Z,87.6637
2023-05-01T05:19:34.818Z,87.6358
2023-05-01T05:20:34.947Z,87.3662
2023-05-01T05:21:35.085Z,87.6865
2023-05-01T05:22:35.206Z,87.7126
2023-05-01T05:23:35.360Z,87.8421
2023-05-01T05:24:35.489Z,88.0037
2023-05-01T05:25:35.600Z,88.0832
2023-05-01T05:26:35.729Z,88.2678
2023-05-01T05:27:35.893Z,88.4828
2023-05-01T05:28:36.003Z,88.6270
2023-05-01T05:29:36.174Z,88.5887
2023-05-01T05:30:36.278Z,88.2585
2023-05-01T05:31:36.469Z,88.0096
2023-05-01T05:32:36.660Z,87.8349
2023-05-01T05:33:36.763Z,87.8499
2023-05-01T05:34:36.870Z,88.0786
2023-05-01T05:35:37.029Z,88.2300
2023-05-01T05:36:37.134Z,88.3920
2023-05-01T05:37:37.275Z,88.5584
2023-05-01T05:38:37.395Z,88.5261
2023-05-01T05:39:37.551Z,88.6382
2023-05-01T05:40:37.664Z,88.7749
2023-05-01T05:41:37.817Z,88.7748
2023-05-01T05:42:37.938Z,88.8715
2023-05-01T05:43:38.127Z,88.9413
2023-05-01T05:44:38.303Z,89.0432
2023-05-01T05:45:38.495Z,89.1252
2023-05-01T05:46:38.726Z,89.2209
2023-05-01T05:47:38.973Z,89.1998
2023-05-01T05:48:39.235Z,89.2397
2023-05-01T05:49:39.295Z,89.1842
2023-05-01T05:50:39.419Z,89.1455
2023-05-01T05:51:39.571Z,89.2472
2023-05-01T05:52:39.704Z,89.2633
2023-05-01T05:53:39.831Z,89.2881
2023-05-01T05:54:39.967Z,89.3541
2023-05-01T05:55:40.150Z,89.3808
2023-05-01T05:56:40.299Z,89.4397
2023-05-01T05:57:40.454Z,89.3849
2023-05-01T05:58:40.579Z,89.3953
2023-05-01T05:59:40.720Z,89.4165
2023-05-01T06:00:40.846Z,89.4359
2023-05-01T06:01:40.965Z,89.3179
2023-05-01T06:02:41.160Z,89.2146
2023-05-01T06:03:41.495Z,89.1466
2023-05-01T06:04:41.762Z,89.0441
2023-05-01T06:05:41.941Z,88.9112
2023-05-01T06:06:42.080Z,88.8345
2023-05-01T06:07:42.177Z,88.6768
2023-05-01T06:08:42.303Z,88.5867
2023-05-01T06:09:42.489Z,88.8412
2023-05-01T06:10:42.604Z,89.0596
2023-05-01T06:11:43.045Z,88.8390
2023-05-01T06:12:47.051Z,88.6654
2023-05-01T06:13:45.986Z,88.8547
2023-05-01T06:14:46.099Z,88.8981
2023-05-01T06:15:46.271Z,88.9433
2023-05-01T06:16:46.370Z,89.0121
2023-05-01T06:17:46.587Z,89.1427
2023-05-01T06:18:46.703Z,89.2385
2023-05-01T06:19:46.802Z,89.2047
2023-05-01T06:20:46.933Z,89.2171
2023-05-01T06:21:47.057Z,89.1346
2023-05-01T06:22:47.195Z,88.9945
2023-05-01T06:23:47.331Z,88.8980
2023-05-01T06:24:47.448Z,88.9031
2023-05-01T06:25:47.570Z,88.9774
2023-05-01T06:26:47.707Z,88.7783
2023-05-01T06:27:47.836Z,88.7612
2023-05-01T06:28:48.000Z,88.7008
2023-05-01T06:29:48.146Z,88.6371
2023-05-01T06:30:48.271Z,88.7615
2023-05-01T06:31:48.415Z,88.5968
2023-05-01T06:32:48.611Z,88.7885
2023-05-01T06:33:48.781Z,89.0875
2023-05-01T06:34:48.914Z,89.0286
2023-05-01T06:35:49.064Z,88.6884
2023-05-01T06:36:49.192Z,88.6343
2023-05-01T06:37:49.310Z,88.3697
2023-05-01T06:38:49.460Z,88.2681
2023-05-01T06:39:49.611Z,88.1544
2023-05-01T06:40:49.731Z,87.7976
2023-05-01T06:41:49.917Z,88.0334
2023-05-01T06:42:50.083Z,88.3487
2023-05-01T06:43:50.229Z,88.6236
2023-05-01T06:44:50.342Z,88.6368
2023-05-01T06:45:50.472Z,88.7717
2023-05-01T06:46:50.708Z,88.6844
2023-05-01T06:47:50.881Z,88.8507
2023-05-01T06:48:50.992Z,88.8748
2023-05-01T06:49:51.134Z,88.6958
2023-05-01T06:50:51.270Z,88.3216
2023-05-01T06:51:51.427Z,88.0121
2023-05-01T06:52:51.574Z,87.8807
2023-05-01T06:53:51.749Z,87.8813
2023-05-01T06:54:51.940Z,87.5349
2023-05-01T06:55:52.053Z,87.6116
2023-05-01T06:56:52.242Z,87.8514
2023-05-01T06:57:52.378Z,87.9036
2023-05-01T06:58:52.521Z,87.9879
2023-05-01T06:59:52.670Z,87.9304
2023-05-01T07:00:52.846Z,87.7487
2023-05-01T07:01:52.975Z,87.6848
2023-05-01T07:02:53.219Z,87.6997
2023-05-01T07:03:54.378Z,87.6301
2023-05-01T07:04:54.517Z,87.5554
2023-05-01T07:05:54.654Z,87.4293
2023-05-01T07:06:54.843Z,87.1249
2023-05-01T07:08:01.336Z,86.6679
2023-05-01T07:08:57.765Z,86.8406
2023-05-01T07:09:58.377Z,87.0201
2023-05-01T07:10:58.737Z,87.5511
2023-05-01T07:11:58.919Z,87.5703
2023-05-01T07:12:59.061Z,87.3076
2023-05-01T07:13:59.188Z,87.2089
2023-05-01T07:14:59.328Z,87.1653
2023-05-01T07:15:59.459Z,86.8948
2023-05-01T07:16:59.649Z,86.4269
2023-05-01T07:17:59.781Z,86.1641
2023-05-01T07:18:59.912Z,86.1554
2023-05-01T07:20:00.056Z,86.2565
2023-05-01T07:21:00.224Z,86.2720
2023-05-01T07:22:00.352Z,86.5835
2023-05-01T07:23:00.511Z,87.2546
2023-05-01T07:24:00.652Z,87.7736
2023-05-01T07:25:00.760Z,87.4773
2023-05-01T07:26:00.919Z,87.1356
2023-05-01T07:27:01.070Z,87.0206
2023-05-01T07:28:01.225Z,86.7778
2023-05-01T07:29:01.369Z,86.6763
2023-05-01T07:30:01.516Z,86.1527
2023-05-01T07:31:01.671Z,86.1658
2023-05-01T07:32:01.773Z,86.0084
2023-05-01T07:33:02.022Z,86.7530
2023-05-01T07:34:02.145Z,86.5368
2023-05-01T07:35:02.299Z,86.5789
2023-05-01T07:36:02.895Z,86.5737
2023-05-01T07:37:02.954Z,86.8018
2023-05-01T07:38:03.072Z,86.7941
2023-05-01T07:39:03.216Z,86.8322
2023-05-01T07:40:03.341Z,86.5919
2023-05-01T07:41:03.522Z,86.9859
2023-05-01T07:42:03.668Z,87.2078
2023-05-01T07:43:03.789Z,85.9655
2023-05-01T07:44:03.901Z,85.5157
2023-05-01T07:45:04.073Z,86.2449
2023-05-01T07:46:04.244Z,86.3763
2023-05-01T07:47:04.339Z,86.7122
2023-05-01T07:48:04.565Z,86.4101
2023-05-01T07:49:04.676Z,86.4812
2023-05-01T07:50:04.797Z,86.4830
2023-05-01T07:51:05.117Z,86.4178
2023-05-01T07:52:05.172Z,86.7994
2023-05-01T07:53:05.335Z,86.9487
2023-05-01T07:54:05.466Z,86.8850
2023-05-01T07:55:05.667Z,86.8047
2023-05-01T07:56:05.811Z,86.6256
2023-05-01T07:57:05.953Z,86.6014
2023-05-01T07:58:06.088Z,86.4866
2023-05-01T07:59:06.242Z,86.1476
2023-05-01T08:00:06.417Z,86.2023
2023-05-01T08:01:06.541Z,86.6472
2023-05-01T08:02:06.696Z,86.2201
2023-05-01T08:03:07.094Z,86.2224
2023-05-01T08:04:08.396Z,86.3049
2023-05-01T08:05:08.536Z,86.7064
2023-05-01T08:06:08.749Z,87.0674
2023-05-01T08:07:08.939Z,86.4944
2023-05-01T08:08:09.076Z,86.2437
2023-05-01T08:09:09.178Z,86.0679
2023-05-01T08:10:09.343Z,86.0593
2023-05-01T08:11:09.462Z,85.9750
2023-05-01T08:12:09.585Z,85.2989
2023-05-01T08:13:09.706Z,85.6008
2023-05-01T08:14:09.812Z,85.9217
2023-05-01T08:15:09.926Z,85.6247
2023-05-01T08:16:10.171Z,85.9492
2023-05-01T08:17:10.292Z,85.7320
2023-05-01T08:18:10.467Z,86.0873
2023-05-01T08:19:10.596Z,86.2480
2023-05-01T08:20:10.764Z,86.8299
2023-05-01T08:21:10.893Z,87.5789
2023-05-01T08:22:11.118Z,87.6912
2023-05-01T08:23:11.180Z,87.6177
2023-05-01T08:24:11.315Z,87.1161
2023-05-01T08:25:11.472Z,86.9166
2023-05-01T08:26:11.566Z,86.8107
2023-05-01T08:27:11.737Z,86.7571
2023-05-01T08:28:11.928Z,86.3483
2023-05-01T08:29:12.053Z,86.4152
2023-05-01T08:30:12.180Z,86.3690
2023-05-01T08:31:12.392Z,86.6435
2023-05-01T08:32:12.484Z,86.5756
2023-05-01T08:33:12.707Z,86.3082
2023-05-01T08:34:12.836Z,85.2591
2023-05-01T08:35:13.009Z,85.6163
2023-05-01T08:36:13.135Z,85.7198
2023-05-01T08:37:13.267Z,86.2947
2023-05-01T08:38:13.512Z,86.6801
2023-05-01T08:39:13.590Z,86.7490
2023-05-01T08:40:13.706Z,86.3637
2023-05-01T08:41:13.851Z,86.2736
2023-05-01T08:42:13.979Z,85.8294
2023-05-01T08:43:14.105Z,86.0336
2023-05-01T08:44:14.261Z,86.2644
2023-05-01T08:45:14.429Z,86.6348
2023-05-01T08:46:14.598Z,86.3096
2023-05-01T08:47:14.820Z,86.8034
2023-05-01T08:48:14.958Z,86.6176
2023-05-01T08:49:15.079Z,86.5722
2023-05-01T08:50:15.192Z,86.8557
2023-05-01T08:51:15.331Z,86.8091
2023-05-01T08:52:15.463Z,86.4536
2023-05-01T08:53:15.585Z,86.5795
2023-05-01T08:54:15.745Z,86.8134
2023-05-01T08:55:15.848Z,87.1681
2023-05-01T08:56:15.971Z,87.1583
2023-05-01T08:57:16.112Z,87.3063
2023-05-01T08:58:16.227Z,86.7198
2023-05-01T08:59:16.374Z,86.6779
2023-05-01T09:00:16.565Z,87.3696
2023-05-01T09:01:16.737Z,87.4369
2023-05-01T09:02:16.920Z,86.8984
2023-05-01T09:03:17.140Z,86.6842
2023-05-01T09:04:17.371Z,87.1514
2023-05-01T09:05:17.512Z,86.5578
2023-05-01T09:06:17.741Z,86.9153
2023-05-01T09:07:17.850Z,86.8979
2023-05-01T09:08:17.983Z,86.9746
2023-05-01T09:09:18.125Z,87.4909
2023-05-01T09:10:18.306Z,87.4052
2023-05-01T09:11:18.441Z,86.8781
2023-05-01T09:12:18.581Z,86.9328
2023-05-01T09:13:18.753Z,86.5352
2023-05-01T09:14:18.877Z,86.9425
2023-05-01T09:15:19.021Z,86.7815
2023-05-01T09:16:19.166Z,86.7391
2023-05-01T09:17:19.371Z,86.0397
2023-05-01T09:18:19.737Z,86.1758
2023-05-01T09:19:19.877Z,86.6052
2023-05-01T09:20:20.017Z,86.4510
2023-05-01T09:21:20.139Z,86.9166
2023-05-01T09:22:20.255Z,86.7871
2023-05-01T09:23:20.426Z,87.0609
2023-05-01T09:24:20.612Z,87.1314
2023-05-01T09:25:20.737Z,86.8910
2023-05-01T09:26:20.862Z,86.4992
2023-05-01T09:27:21.022Z,86.2739
2023-05-01T09:28:21.148Z,86.0738
2023-05-01T09:29:21.274Z,86.2519
2023-05-01T09:30:21.431Z,85.7259
2023-05-01T09:31:21.628Z,85.9321
2023-05-01T09:32:21.873Z,86.0866
2023-05-01T09:33:22.083Z,86.4821
2023-05-01T09:34:22.187Z,86.3378
2023-05-01T09:35:22.314Z,86.2410
2023-05-01T09:36:22.447Z,86.2592
2023-05-01T09:37:22.580Z,85.6463
2023-05-01T09:38:22.692Z,84.8208
2023-05-01T09:39:22.805Z,84.5283
2023-05-01T09:40:22.927Z,84.8392
2023-05-01T09:41:23.102Z,85.1050
2023-05-01T09:42:23.253Z,85.1466
2023-05-01T09:43:23.385Z,84.2749
2023-05-01T09:44:23.555Z,84.3729
2023-05-01T09:45:23.738Z,84.4992
2023-05-01T09:46:23.865Z,84.8355
2023-05-01T09:47:23.969Z,84.2108
2023-05-01T09:48:24.112Z,84.5976
2023-05-01T09:49:24.233Z,83.8538
2023-05-01T09:50:24.393Z,83.9064
2023-05-01T09:51:24.561Z,83.8919
2023-05-01T09:52:24.680Z,83.9954
2023-05-01T09:53:24.954Z,84.7201
2023-05-01T09:54:25.081Z,85.3183
2023-05-01T09:55:25.790Z,85.5990
2023-05-01T09:56:26.109Z,86.0127
2023-05-01T09:57:26.245Z,85.3893
2023-05-01T09:58:26.432Z,84.3610
2023-05-01T09:59:26.548Z,84.0686
2023-05-01T10:00:26.734Z,84.7491
2023-05-01T10:01:26.866Z,84.6870
2023-05-01T10:02:27.058Z,85.1845
2023-05-01T10:03:27.331Z,85.3372
2023-05-01T10:04:27.480Z,84.7796
2023-05-01T10:05:27.698Z,84.0581
2023-05-01T10:06:27.995Z,83.3591
2023-05-01T10:07:28.112Z,83.5548
2023-05-01T10:08:28.195Z,84.2283
2023-05-01T10:09:28.313Z,84.8219
2023-05-01T10:10:28.462Z,84.1307
2023-05-01T10:11:28.708Z,83.7008
2023-05-01T10:12:28.782Z,83.8383
2023-05-01T10:13:28.898Z,84.1436
2023-05-01T10:14:29.028Z,83.8392
2023-05-01T10:15:29.143Z,84.3218
2023-05-01T10:16:29.321Z,84.3584
2023-05-01T10:17:29.489Z,83.7705
2023-05-01T10:18:29.584Z,83.2207
2023-05-01T10:19:29.708Z,83.0572
2023-05-01T10:20:29.850Z,83.0989
2023-05-01T10:21:29.965Z,83.2543
2023-05-01T10:22:30.089Z,83.0520
2023-05-01T10:23:30.194Z,83.8348
2023-05-01T10:24:30.393Z,84.2562
2023-05-01T10:25:30.503Z,84.3017
2023-05-01T10:26:30.625Z,83.0966
2023-05-01T10:27:30.763Z,82.1291
2023-05-01T10:28:30.964Z,80.9924
2023-05-01T10:29:31.063Z,81.8004
2023-05-01T10:30:31.153Z,80.1299
2023-05-01T10:31:31.334Z,79.5264
2023-05-01T10:32:31.437Z,79.1870
2023-05-01T10:33:31.569Z,78.9083
2023-05-01T10:34:31.717Z,79.3137
2023-05-01T10:35:31.878Z,80.1291
2023-05-01T10:36:32.022Z,80.8405
2023-05-01T10:37:32.119Z,79.0209
2023-05-01T10:38:32.239Z,80.6873
2023-05-01T10:39:32.378Z,81.6848
2023-05-01T10:40:32.539Z,80.6959
2023-05-01T10:41:32.671Z,79.3146
2023-05-01T10:42:32.826Z,79.2629
2023-05-01T10:43:33.921Z,80.3679
2023-05-01T10:44:34.047Z,79.5023
2023-05-01T10:45:35.896Z,78.8426
2023-05-01T10:46:36.075Z,79.6224
2023-05-01T10:47:36.241Z,79.9169
2023-05-01T10:48:36.366Z,80.3808
2023-05-01T10:49:36.488Z,80.1263
2023-05-01T10:50:36.641Z,80.9802
2023-05-01T10:51:36.741Z,80.4016
2023-05-01T10:52:36.858Z,80.0113
2023-05-01T10:53:36.979Z,79.6839
2023-05-01T10:54:37.222Z,80.0283
2023-05-01T10:55:37.388Z,79.9233
2023-05-01T10:56:37.503Z,79.6124
2023-05-01T10:57:37.646Z,79.6797
2023-05-01T10:58:37.749Z,79.9888
2023-05-01T10:59:37.940Z,81.1982
2023-05-01T11:00:38.096Z,81.7349
2023-05-01T11:01:38.268Z,81.9855
2023-05-01T11:02:38.424Z,82.1224
2023-05-01T11:03:38.514Z,81.8246
2023-05-01T11:04:38.627Z,79.8522
2023-05-01T11:05:38.928Z,79.4182
2023-05-01T11:06:39.172Z,78.8104
2023-05-01T11:07:39.364Z,79.8377
2023-05-01T11:08:39.486Z,79.9684
2023-05-01T11:09:39.608Z,80.8672
2023-05-01T11:10:39.736Z,80.1743
2023-05-01T11:11:39.855Z,80.2173
2023-05-01T11:12:39.985Z,80.1010
2023-05-01T11:13:40.166Z,80.0978
2023-05-01T11:14:40.317Z,80.1809
2023-05-01T11:15:40.412Z,78.5759
2023-05-01T11:16:40.631Z,79.5490
2023-05-01T11:17:40.965Z,78.3820
2023-05-01T11:18:41.087Z,79.4793
2023-05-01T11:19:41.218Z,79.2554
2023-05-01T11:20:41.359Z,78.9930
2023-05-01T11:21:41.468Z,80.5485
2023-05-01T11:22:41.592Z,80.6595
2023-05-01T11:23:41.708Z,80.7616
2023-05-01T11:24:41.953Z,80.6055
2023-05-01T11:25:42.085Z,81.3028
2023-05-01T11:26:42.244Z,81.4082
2023-05-01T11:27:42.320Z,80.8588
2023-05-01T11:28:42.455Z,80.9078
2023-05-01T11:29:42.559Z,80.0037
2023-05-01T11:30:42.807Z,80.5134
2023-05-01T11:31:42.970Z,80.5677
2023-05-01T11:32:43.104Z,81.3600
2023-05-01T11:33:43.285Z,81.9424
2023-05-01T11:34:43.451Z,82.4185
2023-05-01T11:35:43.618Z,82.1748
2023-05-01T11:36:43.797Z,82.1932
2023-05-01T11:37:43.949Z,81.3319
2023-05-01T11:38:44.092Z,82.1021
2023-05-01T11:39:44.265Z,82.4198
2023-05-01T11:40:44.447Z,81.8482
2023-05-01T11:41:44.602Z,80.2019
2023-05-01T11:42:44.780Z,81.2364
2023-05-01T11:43:44.952Z,82.3044
2023-05-01T11:44:45.122Z,82.1092
2023-05-01T11:45:45.329Z,80.4805
2023-05-01T11:46:45.446Z,81.3203
2023-05-01T11:47:45.629Z,80.6526
2023-05-01T11:48:45.774Z,81.1436
2023-05-01T11:49:45.976Z,81.9286
2023-05-01T11:50:46.143Z,81.4620
2023-05-01T11:51:46.280Z,80.3970
2023-05-01T11:52:46.499Z,80.3245
2023-05-01T11:53:46.656Z,80.3871
2023-05-01T11:54:46.842Z,80.8507
2023-05-01T11:55:46.971Z,82.0384
2023-05-01T11:56:47.141Z,81.8224
2023-05-01T11:57:47.364Z,81.9769
2023-05-01T11:58:47.533Z,81.8271
2023-05-01T11:59:47.669Z,81.4546
2023-05-01T12:00:47.842Z,81.0492
2023-05-01T12:01:48.061Z,81.3939
2023-05-01T12:02:48.265Z,81.4345
2023-05-01T12:03:48.479Z,80.8372
2023-05-01T12:04:48.741Z,81.0808
2023-05-01T12:05:48.895Z,79.7807
2023-05-01T12:06:49.122Z,80.8968
2023-05-01T12:07:49.256Z,80.2950